sensor_id;sensor_type;location;lat;lon;timestamp;P1;durP1;ratioP1;P2;durP2;ratioP2
11006;SDS011;8186;57.652;11.968;2023-05-07T00:01:27;4.40;;;2.00;;
11006;SDS011;8186;57.652;11.968;2023-05-07T00:03:54;3.17;;;1.73;;
11006;SDS011;8186;57.652;11.968;2023-05-07T00:06:20;3.30;;;2.17;;
11006;SDS011;8186;57.652;11.968;2023-05-07T00:08:49;4.93;;;1.73;;
11006;SDS011;8186;57.652;11.968;2023-05-07T00:11:16;3.27;;;1.70;;
11006;SDS011;8186;57.652;11.968;2023-05-07T00:13:43;2.40;;;1.83;;
11006;SDS011;8186;57.652;11.968;2023-05-07T00:16:10;2.03;;;1.63;;
11006;SDS011;8186;57.652;11.968;2023-05-07T00:18:37;4.20;;;2.20;;
11006;SDS011;8186;57.652;11.968;2023-05-07T00:21:04;4.27;;;1.70;;
11006;SDS011;8186;57.652;11.968;2023-05-07T00:23:31;1.97;;;1.47;;
11006;SDS011;8186;57.652;11.968;2023-05-07T00:25:59;3.07;;;2.13;;
11006;SDS011;8186;57.652;11.968;2023-05-07T00:28:26;2.87;;;1.60;;
11006;SDS011;8186;57.652;11.968;2023-05-07T00:30:53;2.20;;;1.77;;
11006;SDS011;8186;57.652;11.968;2023-05-07T00:33:20;1.67;;;1.47;;
11006;SDS011;8186;57.652;11.968;2023-05-07T00:35:47;2.60;;;1.70;;
11006;SDS011;8186;57.652;11.968;2023-05-07T00:38:14;2.03;;;1.67;;
11006;SDS011;8186;57.652;11.968;2023-05-07T00:40:41;2.03;;;1.40;;
11006;SDS011;8186;57.652;11.968;2023-05-07T00:43:09;2.03;;;1.60;;
11006;SDS011;8186;57.652;11.968;2023-05-07T00:45:37;5.07;;;1.80;;
11006;SDS011;8186;57.652;11.968;2023-05-07T00:48:05;2.53;;;1.60;;
11006;SDS011;8186;57.652;11.968;2023-05-07T00:50:32;2.80;;;1.50;;
11006;SDS011;8186;57.652;11.968;2023-05-07T00:52:59;2.50;;;1.40;;
11006;SDS011;8186;57.652;11.968;2023-05-07T00:55:26;1.40;;;1.10;;
11006;SDS011;8186;57.652;11.968;2023-05-07T00:57:53;2.87;;;1.60;;
11006;SDS011;8186;57.652;11.968;2023-05-07T01:00:22;1.63;;;1.30;;
11006;SDS011;8186;57.652;11.968;2023-05-07T01:02:50;3.07;;;1.37;;
11006;SDS011;8186;57.652;11.968;2023-05-07T01:05:17;1.83;;;1.40;;
11006;SDS011;8186;57.652;11.968;2023-05-07T01:07:45;2.63;;;1.40;;
11006;SDS011;8186;57.652;11.968;2023-05-07T01:10:12;3.23;;;1.60;;
11006;SDS011;8186;57.652;11.968;2023-05-07T01:12:40;1.90;;;1.40;;
11006;SDS011;8186;57.652;11.968;2023-05-07T01:15:08;2.20;;;1.20;;
11006;SDS011;8186;57.652;11.968;2023-05-07T01:17:37;1.50;;;1.20;;
11006;SDS011;8186;57.652;11.968;2023-05-07T01:20:06;2.23;;;1.20;;
11006;SDS011;8186;57.652;11.968;2023-05-07T01:22:36;1.47;;;1.10;;
11006;SDS011;8186;57.652;11.968;2023-05-07T01:25:05;3.57;;;1.37;;
11006;SDS011;8186;57.652;11.968;2023-05-07T01:27:33;1.77;;;1.07;;
11006;SDS011;8186;57.652;11.968;2023-05-07T01:30:00;2.43;;;1.20;;
11006;SDS011;8186;57.652;11.968;2023-05-07T01:32:29;3.83;;;1.30;;
11006;SDS011;8186;57.652;11.968;2023-05-07T01:34:59;1.57;;;1.30;;
11006;SDS011;8186;57.652;11.968;2023-05-07T01:37:27;3.57;;;1.30;;
11006;SDS011;8186;57.652;11.968;2023-05-07T01:39:56;3.10;;;1.43;;
11006;SDS011;8186;57.652;11.968;2023-05-07T01:42:23;2.97;;;1.30;;
11006;SDS011;8186;57.652;11.968;2023-05-07T01:44:50;2.50;;;1.50;;
11006;SDS011;8186;57.652;11.968;2023-05-07T01:47:17;1.53;;;1.27;;
11006;SDS011;8186;57.652;11.968;2023-05-07T01:49:44;4.00;;;1.30;;
11006;SDS011;8186;57.652;11.968;2023-05-07T01:52:11;2.97;;;1.40;;
11006;SDS011;8186;57.652;11.968;2023-05-07T01:54:38;2.17;;;1.40;;
11006;SDS011;8186;57.652;11.968;2023-05-07T01:57:06;1.83;;;1.10;;
11006;SDS011;8186;57.652;11.968;2023-05-07T01:59:33;2.90;;;1.17;;
11006;SDS011;8186;57.652;11.968;2023-05-07T02:02:00;1.37;;;1.20;;
11006;SDS011;8186;57.652;11.968;2023-05-07T02:04:27;2.07;;;1.10;;
11006;SDS011;8186;57.652;11.968;2023-05-07T02:06:54;1.40;;;1.10;;
11006;SDS011;8186;57.652;11.968;2023-05-07T02:09:21;1.63;;;1.00;;
11006;SDS011;8186;57.652;11.968;2023-05-07T02:11:48;2.80;;;1.00;;
11006;SDS011;8186;57.652;11.968;2023-05-07T02:14:17;1.80;;;1.10;;
11006;SDS011;8186;57.652;11.968;2023-05-07T02:16:45;1.47;;;0.90;;
11006;SDS011;8186;57.652;11.968;2023-05-07T02:19:12;1.67;;;1.00;;
11006;SDS011;8186;57.652;11.968;2023-05-07T02:21:39;2.43;;;1.00;;
11006;SDS011;8186;57.652;11.968;2023-05-07T02:24:06;1.17;;;0.97;;
11006;SDS011;8186;57.652;11.968;2023-05-07T02:26:33;1.20;;;0.90;;
11006;SDS011;8186;57.652;11.968;2023-05-07T02:29:00;1.70;;;1.10;;
11006;SDS011;8186;57.652;11.968;2023-05-07T02:31:28;1.70;;;1.07;;
11006;SDS011;8186;57.652;11.968;2023-05-07T02:33:55;3.13;;;1.00;;
11006;SDS011;8186;57.652;11.968;2023-05-07T02:36:22;3.67;;;1.03;;
11006;SDS011;8186;57.652;11.968;2023-05-07T02:38:49;2.13;;;1.30;;
11006;SDS011;8186;57.652;11.968;2023-05-07T02:41:16;1.10;;;0.97;;
11006;SDS011;8186;57.652;11.968;2023-05-07T02:43:43;3.33;;;1.10;;
11006;SDS011;8186;57.652;11.968;2023-05-07T02:46:10;1.73;;;1.30;;
11006;SDS011;8186;57.652;11.968;2023-05-07T02:48:38;1.80;;;1.07;;
11006;SDS011;8186;57.652;11.968;2023-05-07T02:51:05;2.70;;;1.47;;
11006;SDS011;8186;57.652;11.968;2023-05-07T02:53:32;3.43;;;1.40;;
11006;SDS011;8186;57.652;11.968;2023-05-07T02:56:01;3.97;;;1.40;;
11006;SDS011;8186;57.652;11.968;2023-05-07T02:58:28;2.47;;;1.30;;
11006;SDS011;8186;57.652;11.968;2023-05-07T03:00:56;4.60;;;1.20;;
11006;SDS011;8186;57.652;11.968;2023-05-07T03:03:24;1.90;;;1.40;;
11006;SDS011;8186;57.652;11.968;2023-05-07T03:05:52;1.80;;;1.20;;
11006;SDS011;8186;57.652;11.968;2023-05-07T03:08:19;1.87;;;1.07;;
11006;SDS011;8186;57.652;11.968;2023-05-07T03:10:46;1.67;;;1.20;;
11006;SDS011;8186;57.652;11.968;2023-05-07T03:13:13;5.70;;;1.40;;
11006;SDS011;8186;57.652;11.968;2023-05-07T03:15:40;2.77;;;1.30;;
11006;SDS011;8186;57.652;11.968;2023-05-07T03:18:07;1.93;;;1.30;;
11006;SDS011;8186;57.652;11.968;2023-05-07T03:20:34;1.50;;;1.13;;
11006;SDS011;8186;57.652;11.968;2023-05-07T03:23:03;1.27;;;1.00;;
11006;SDS011;8186;57.652;11.968;2023-05-07T03:25:30;4.10;;;1.20;;
11006;SDS011;8186;57.652;11.968;2023-05-07T03:27:57;1.20;;;1.00;;
11006;SDS011;8186;57.652;11.968;2023-05-07T03:30:24;1.43;;;1.13;;
11006;SDS011;8186;57.652;11.968;2023-05-07T03:32:50;2.27;;;1.10;;
11006;SDS011;8186;57.652;11.968;2023-05-07T03:35:17;2.70;;;1.00;;
11006;SDS011;8186;57.652;11.968;2023-05-07T03:37:45;2.97;;;1.10;;
11006;SDS011;8186;57.652;11.968;2023-05-07T03:40:13;3.20;;;1.20;;
11006;SDS011;8186;57.652;11.968;2023-05-07T03:42:40;3.70;;;2.00;;
11006;SDS011;8186;57.652;11.968;2023-05-07T03:45:07;2.03;;;1.43;;
11006;SDS011;8186;57.652;11.968;2023-05-07T03:47:35;2.60;;;1.20;;
11006;SDS011;8186;57.652;11.968;2023-05-07T03:50:02;4.20;;;1.30;;
11006;SDS011;8186;57.652;11.968;2023-05-07T03:52:29;2.20;;;1.40;;
11006;SDS011;8186;57.652;11.968;2023-05-07T03:54:56;2.90;;;1.20;;
11006;SDS011;8186;57.652;11.968;2023-05-07T03:57:24;2.43;;;1.43;;
11006;SDS011;8186;57.652;11.968;2023-05-07T03:59:51;2.57;;;1.17;;
11006;SDS011;8186;57.652;11.968;2023-05-07T04:02:18;2.43;;;1.10;;
11006;SDS011;8186;57.652;11.968;2023-05-07T04:04:45;1.63;;;1.23;;
11006;SDS011;8186;57.652;11.968;2023-05-07T04:07:12;1.43;;;1.10;;
11006;SDS011;8186;57.652;11.968;2023-05-07T04:09:39;2.00;;;1.30;;
11006;SDS011;8186;57.652;11.968;2023-05-07T04:12:06;2.40;;;1.30;;
11006;SDS011;8186;57.652;11.968;2023-05-07T04:14:35;3.07;;;1.30;;
11006;SDS011;8186;57.652;11.968;2023-05-07T04:17:02;2.40;;;1.20;;
11006;SDS011;8186;57.652;11.968;2023-05-07T04:19:29;1.17;;;1.07;;
11006;SDS011;8186;57.652;11.968;2023-05-07T04:21:56;3.53;;;1.30;;
11006;SDS011;8186;57.652;11.968;2023-05-07T04:24:23;2.97;;;1.50;;
11006;SDS011;8186;57.652;11.968;2023-05-07T04:26:50;1.50;;;1.00;;
11006;SDS011;8186;57.652;11.968;2023-05-07T04:29:17;1.87;;;1.10;;
11006;SDS011;8186;57.652;11.968;2023-05-07T04:31:46;1.43;;;1.13;;
11006;SDS011;8186;57.652;11.968;2023-05-07T04:34:13;2.23;;;1.17;;
11006;SDS011;8186;57.652;11.968;2023-05-07T04:36:39;1.90;;;1.27;;
11006;SDS011;8186;57.652;11.968;2023-05-07T04:39:08;2.87;;;1.00;;
11006;SDS011;8186;57.652;11.968;2023-05-07T04:41:36;3.17;;;1.57;;
11006;SDS011;8186;57.652;11.968;2023-05-07T04:44:03;1.77;;;1.37;;
11006;SDS011;8186;57.652;11.968;2023-05-07T04:46:31;2.57;;;1.07;;
11006;SDS011;8186;57.652;11.968;2023-05-07T04:49:00;1.17;;;1.00;;
11006;SDS011;8186;57.652;11.968;2023-05-07T04:51:27;2.07;;;1.30;;
11006;SDS011;8186;57.652;11.968;2023-05-07T04:53:54;4.73;;;1.40;;
11006;SDS011;8186;57.652;11.968;2023-05-07T04:56:21;1.73;;;1.23;;
11006;SDS011;8186;57.652;11.968;2023-05-07T04:58:48;1.83;;;1.10;;
11006;SDS011;8186;57.652;11.968;2023-05-07T05:01:15;1.77;;;1.20;;
11006;SDS011;8186;57.652;11.968;2023-05-07T05:03:41;3.17;;;1.10;;
11006;SDS011;8186;57.652;11.968;2023-05-07T05:06:10;3.50;;;1.37;;
11006;SDS011;8186;57.652;11.968;2023-05-07T05:08:37;1.83;;;1.30;;
11006;SDS011;8186;57.652;11.968;2023-05-07T05:11:04;2.27;;;1.37;;
11006;SDS011;8186;57.652;11.968;2023-05-07T05:13:31;2.10;;;1.10;;
11006;SDS011;8186;57.652;11.968;2023-05-07T05:15:58;2.43;;;1.20;;
11006;SDS011;8186;57.652;11.968;2023-05-07T05:18:25;1.20;;;1.00;;
11006;SDS011;8186;57.652;11.968;2023-05-07T05:20:52;4.83;;;1.30;;
11006;SDS011;8186;57.652;11.968;2023-05-07T05:23:20;3.10;;;1.03;;
11006;SDS011;8186;57.652;11.968;2023-05-07T05:25:47;1.47;;;1.20;;
11006;SDS011;8186;57.652;11.968;2023-05-07T05:28:14;1.40;;;1.10;;
11006;SDS011;8186;57.652;11.968;2023-05-07T05:30:41;1.40;;;1.20;;
11006;SDS011;8186;57.652;11.968;2023-05-07T05:33:07;2.70;;;1.50;;
11006;SDS011;8186;57.652;11.968;2023-05-07T05:35:34;2.53;;;1.10;;
11006;SDS011;8186;57.652;11.968;2023-05-07T05:38:01;5.80;;;1.40;;
11006;SDS011;8186;57.652;11.968;2023-05-07T05:40:30;2.33;;;1.23;;
11006;SDS011;8186;57.652;11.968;2023-05-07T05:42:57;3.47;;;1.57;;
11006;SDS011;8186;57.652;11.968;2023-05-07T05:45:24;1.47;;;1.00;;
11006;SDS011;8186;57.652;11.968;2023-05-07T05:47:51;1.87;;;1.10;;
11006;SDS011;8186;57.652;11.968;2023-05-07T05:50:18;3.10;;;1.23;;
11006;SDS011;8186;57.652;11.968;2023-05-07T05:52:45;1.87;;;1.03;;
11006;SDS011;8186;57.652;11.968;2023-05-07T05:55:12;2.33;;;1.17;;
11006;SDS011;8186;57.652;11.968;2023-05-07T05:57:41;2.00;;;1.10;;
11006;SDS011;8186;57.652;11.968;2023-05-07T06:00:08;1.90;;;1.40;;
11006;SDS011;8186;57.652;11.968;2023-05-07T06:02:36;2.17;;;1.33;;
11006;SDS011;8186;57.652;11.968;2023-05-07T06:05:03;3.90;;;1.60;;
11006;SDS011;8186;57.652;11.968;2023-05-07T06:07:30;1.40;;;1.20;;
11006;SDS011;8186;57.652;11.968;2023-05-07T06:09:57;3.13;;;1.40;;
11006;SDS011;8186;57.652;11.968;2023-05-07T06:12:24;1.67;;;1.33;;
11006;SDS011;8186;57.652;11.968;2023-05-07T06:14:52;3.87;;;1.30;;
11006;SDS011;8186;57.652;11.968;2023-05-07T06:17:20;2.40;;;1.10;;
11006;SDS011;8186;57.652;11.968;2023-05-07T06:19:46;1.00;;;1.00;;
11006;SDS011;8186;57.652;11.968;2023-05-07T06:22:13;3.23;;;1.10;;
11006;SDS011;8186;57.652;11.968;2023-05-07T06:24:40;3.13;;;1.30;;
11006;SDS011;8186;57.652;11.968;2023-05-07T06:27:08;3.53;;;1.13;;
11006;SDS011;8186;57.652;11.968;2023-05-07T06:29:35;5.63;;;1.20;;
11006;SDS011;8186;57.652;11.968;2023-05-07T06:32:08;1.77;;;1.10;;
11006;SDS011;8186;57.652;11.968;2023-05-07T06:34:35;2.27;;;1.23;;
11006;SDS011;8186;57.652;11.968;2023-05-07T06:37:02;2.43;;;1.20;;
11006;SDS011;8186;57.652;11.968;2023-05-07T06:39:30;2.40;;;1.30;;
11006;SDS011;8186;57.652;11.968;2023-05-07T06:41:57;1.27;;;1.03;;
11006;SDS011;8186;57.652;11.968;2023-05-07T06:44:24;1.70;;;1.10;;
11006;SDS011;8186;57.652;11.968;2023-05-07T06:46:51;1.93;;;1.40;;
11006;SDS011;8186;57.652;11.968;2023-05-07T06:49:19;2.93;;;1.27;;
11006;SDS011;8186;57.652;11.968;2023-05-07T06:51:46;3.20;;;1.03;;
11006;SDS011;8186;57.652;11.968;2023-05-07T06:54:13;2.57;;;1.20;;
11006;SDS011;8186;57.652;11.968;2023-05-07T06:56:40;2.23;;;1.30;;
11006;SDS011;8186;57.652;11.968;2023-05-07T06:59:07;2.57;;;1.37;;
11006;SDS011;8186;57.652;11.968;2023-05-07T07:01:34;2.33;;;1.33;;
11006;SDS011;8186;57.652;11.968;2023-05-07T07:04:00;1.67;;;1.10;;
11006;SDS011;8186;57.652;11.968;2023-05-07T07:06:29;2.97;;;1.30;;
11006;SDS011;8186;57.652;11.968;2023-05-07T07:08:56;3.00;;;1.50;;
11006;SDS011;8186;57.652;11.968;2023-05-07T07:11:23;2.00;;;1.47;;
11006;SDS011;8186;57.652;11.968;2023-05-07T07:13:50;2.30;;;1.53;;
11006;SDS011;8186;57.652;11.968;2023-05-07T07:16:19;1.67;;;1.17;;
11006;SDS011;8186;57.652;11.968;2023-05-07T07:18:46;4.27;;;1.10;;
11006;SDS011;8186;57.652;11.968;2023-05-07T07:21:13;3.30;;;1.30;;
11006;SDS011;8186;57.652;11.968;2023-05-07T07:23:41;3.83;;;1.67;;
11006;SDS011;8186;57.652;11.968;2023-05-07T07:26:09;5.23;;;1.60;;
11006;SDS011;8186;57.652;11.968;2023-05-07T07:28:41;3.63;;;1.63;;
11006;SDS011;8186;57.652;11.968;2023-05-07T07:31:09;2.60;;;1.53;;
11006;SDS011;8186;57.652;11.968;2023-05-07T07:33:36;1.67;;;1.23;;
11006;SDS011;8186;57.652;11.968;2023-05-07T07:36:03;2.10;;;1.50;;
11006;SDS011;8186;57.652;11.968;2023-05-07T07:38:31;3.30;;;1.53;;
11006;SDS011;8186;57.652;11.968;2023-05-07T07:41:00;3.50;;;1.40;;
11006;SDS011;8186;57.652;11.968;2023-05-07T07:43:27;2.93;;;1.47;;
11006;SDS011;8186;57.652;11.968;2023-05-07T07:45:54;2.80;;;1.50;;
11006;SDS011;8186;57.652;11.968;2023-05-07T07:48:21;2.17;;;1.40;;
11006;SDS011;8186;57.652;11.968;2023-05-07T07:50:48;1.83;;;1.50;;
11006;SDS011;8186;57.652;11.968;2023-05-07T07:53:16;2.70;;;1.70;;
11006;SDS011;8186;57.652;11.968;2023-05-07T07:55:43;3.20;;;1.50;;
11006;SDS011;8186;57.652;11.968;2023-05-07T07:58:12;2.03;;;1.60;;
11006;SDS011;8186;57.652;11.968;2023-05-07T08:00:39;3.30;;;1.70;;
11006;SDS011;8186;57.652;11.968;2023-05-07T08:03:08;2.50;;;1.40;;
11006;SDS011;8186;57.652;11.968;2023-05-07T08:05:36;2.20;;;1.67;;
11006;SDS011;8186;57.652;11.968;2023-05-07T08:08:03;2.77;;;1.67;;
11006;SDS011;8186;57.652;11.968;2023-05-07T08:10:32;3.73;;;1.67;;
11006;SDS011;8186;57.652;11.968;2023-05-07T08:13:00;1.67;;;1.50;;
11006;SDS011;8186;57.652;11.968;2023-05-07T08:15:28;4.93;;;1.63;;
11006;SDS011;8186;57.652;11.968;2023-05-07T08:17:56;3.83;;;1.60;;
11006;SDS011;8186;57.652;11.968;2023-05-07T08:20:25;4.33;;;1.60;;
11006;SDS011;8186;57.652;11.968;2023-05-07T08:22:52;1.67;;;1.57;;
11006;SDS011;8186;57.652;11.968;2023-05-07T08:25:19;3.97;;;1.83;;
11006;SDS011;8186;57.652;11.968;2023-05-07T08:27:46;1.50;;;1.17;;
11006;SDS011;8186;57.652;11.968;2023-05-07T08:30:13;4.57;;;1.60;;
11006;SDS011;8186;57.652;11.968;2023-05-07T08:32:42;2.67;;;1.30;;
11006;SDS011;8186;57.652;11.968;2023-05-07T08:35:09;3.17;;;1.67;;
11006;SDS011;8186;57.652;11.968;2023-05-07T08:37:36;6.20;;;1.57;;
11006;SDS011;8186;57.652;11.968;2023-05-07T08:40:03;1.93;;;1.70;;
11006;SDS011;8186;57.652;11.968;2023-05-07T08:42:31;2.60;;;1.60;;
11006;SDS011;8186;57.652;11.968;2023-05-07T08:45:01;1.57;;;1.40;;
11006;SDS011;8186;57.652;11.968;2023-05-07T08:47:33;2.97;;;1.53;;
11006;SDS011;8186;57.652;11.968;2023-05-07T08:50:03;3.47;;;1.50;;
11006;SDS011;8186;57.652;11.968;2023-05-07T08:52:32;1.80;;;1.10;;
11006;SDS011;8186;57.652;11.968;2023-05-07T08:54:59;4.37;;;1.57;;
11006;SDS011;8186;57.652;11.968;2023-05-07T08:57:26;2.33;;;1.20;;
11006;SDS011;8186;57.652;11.968;2023-05-07T08:59:53;1.90;;;1.60;;
11006;SDS011;8186;57.652;11.968;2023-05-07T09:02:20;1.90;;;1.50;;
11006;SDS011;8186;57.652;11.968;2023-05-07T09:04:47;1.50;;;1.40;;
11006;SDS011;8186;57.652;11.968;2023-05-07T09:07:16;2.93;;;1.53;;
11006;SDS011;8186;57.652;11.968;2023-05-07T09:09:43;3.73;;;1.40;;
11006;SDS011;8186;57.652;11.968;2023-05-07T09:12:10;1.30;;;1.20;;
11006;SDS011;8186;57.652;11.968;2023-05-07T09:14:37;4.57;;;1.53;;
11006;SDS011;8186;57.652;11.968;2023-05-07T09:17:05;1.77;;;1.40;;
11006;SDS011;8186;57.652;11.968;2023-05-07T09:19:32;2.70;;;1.60;;
11006;SDS011;8186;57.652;11.968;2023-05-07T09:21:59;2.58;;;1.40;;
11006;SDS011;8186;57.652;11.968;2023-05-07T09:24:28;3.10;;;1.50;;
11006;SDS011;8186;57.652;11.968;2023-05-07T09:26:59;2.23;;;1.20;;
11006;SDS011;8186;57.652;11.968;2023-05-07T09:29:26;1.23;;;1.10;;
11006;SDS011;8186;57.652;11.968;2023-05-07T09:31:54;1.63;;;1.20;;
11006;SDS011;8186;57.652;11.968;2023-05-07T09:34:21;1.77;;;1.40;;
11006;SDS011;8186;57.652;11.968;2023-05-07T09:36:48;1.57;;;1.40;;
11006;SDS011;8186;57.652;11.968;2023-05-07T09:39:14;3.40;;;1.13;;
11006;SDS011;8186;57.652;11.968;2023-05-07T09:41:46;2.93;;;1.47;;
11006;SDS011;8186;57.652;11.968;2023-05-07T09:44:14;3.20;;;1.30;;
11006;SDS011;8186;57.652;11.968;2023-05-07T09:46:42;1.23;;;1.13;;
11006;SDS011;8186;57.652;11.968;2023-05-07T09:49:11;7.50;;;1.30;;
11006;SDS011;8186;57.652;11.968;2023-05-07T09:51:43;2.27;;;1.40;;
11006;SDS011;8186;57.652;11.968;2023-05-07T09:54:14;1.33;;;1.23;;
11006;SDS011;8186;57.652;11.968;2023-05-07T09:56:41;2.30;;;1.20;;
11006;SDS011;8186;57.652;11.968;2023-05-07T09:59:11;2.47;;;1.40;;
11006;SDS011;8186;57.652;11.968;2023-05-07T10:01:41;2.10;;;1.30;;
11006;SDS011;8186;57.652;11.968;2023-05-07T10:04:08;2.90;;;1.30;;
11006;SDS011;8186;57.652;11.968;2023-05-07T10:06:36;2.43;;;1.40;;
11006;SDS011;8186;57.652;11.968;2023-05-07T10:09:04;2.30;;;1.33;;
11006;SDS011;8186;57.652;11.968;2023-05-07T10:11:32;4.13;;;1.40;;
11006;SDS011;8186;57.652;11.968;2023-05-07T10:13:59;1.60;;;1.33;;
11006;SDS011;8186;57.652;11.968;2023-05-07T10:16:28;2.53;;;1.20;;
11006;SDS011;8186;57.652;11.968;2023-05-07T10:18:58;2.37;;;1.27;;
11006;SDS011;8186;57.652;11.968;2023-05-07T10:21:26;2.93;;;1.40;;
11006;SDS011;8186;57.652;11.968;2023-05-07T10:23:56;1.40;;;1.10;;
11006;SDS011;8186;57.652;11.968;2023-05-07T10:26:25;1.73;;;1.23;;
11006;SDS011;8186;57.652;11.968;2023-05-07T10:28:53;2.10;;;1.27;;
11006;SDS011;8186;57.652;11.968;2023-05-07T10:31:33;2.70;;;1.20;;
11006;SDS011;8186;57.652;11.968;2023-05-07T10:34:07;1.87;;;1.27;;
11006;SDS011;8186;57.652;11.968;2023-05-07T10:36:34;2.77;;;1.57;;
11006;SDS011;8186;57.652;11.968;2023-05-07T10:39:01;2.43;;;1.60;;
11006;SDS011;8186;57.652;11.968;2023-05-07T10:41:29;1.65;;;1.20;;
11006;SDS011;8186;57.652;11.968;2023-05-07T10:43:56;2.73;;;1.20;;
11006;SDS011;8186;57.652;11.968;2023-05-07T10:46:26;5.87;;;1.30;;
11006;SDS011;8186;57.652;11.968;2023-05-07T10:49:13;2.53;;;1.10;;
11006;SDS011;8186;57.652;11.968;2023-05-07T10:51:41;3.25;;;1.20;;
11006;SDS011;8186;57.652;11.968;2023-05-07T10:54:20;3.25;;;1.25;;
11006;SDS011;8186;57.652;11.968;2023-05-07T10:56:49;4.40;;;1.13;;
11006;SDS011;8186;57.652;11.968;2023-05-07T10:59:31;4.63;;;1.20;;
11006;SDS011;8186;57.652;11.968;2023-05-07T11:02:07;2.88;;;1.40;;
11006;SDS011;8186;57.652;11.968;2023-05-07T11:04:37;2.60;;;1.45;;
11006;SDS011;8186;57.652;11.968;2023-05-07T11:09:59;2.65;;;1.25;;
11006;SDS011;8186;57.652;11.968;2023-05-07T11:15:40;1.58;;;0.90;;
11006;SDS011;8186;57.652;11.968;2023-05-07T11:18:11;3.63;;;1.40;;
11006;SDS011;8186;57.652;11.968;2023-05-07T11:26:22;2.45;;;1.27;;
11006;SDS011;8186;57.652;11.968;2023-05-07T11:28:50;1.95;;;1.23;;
11006;SDS011;8186;57.652;11.968;2023-05-07T11:31:20;2.80;;;1.65;;
11006;SDS011;8186;57.652;11.968;2023-05-07T11:33:48;2.15;;;1.33;;
11006;SDS011;8186;57.652;11.968;2023-05-07T11:36:17;3.38;;;1.20;;
11006;SDS011;8186;57.652;11.968;2023-05-07T11:38:45;2.40;;;1.42;;
11006;SDS011;8186;57.652;11.968;2023-05-07T11:41:12;1.65;;;1.55;;
11006;SDS011;8186;57.652;11.968;2023-05-07T11:43:40;1.85;;;1.33;;
11006;SDS011;8186;57.652;11.968;2023-05-07T11:46:20;1.50;;;1.30;;
11006;SDS011;8186;57.652;11.968;2023-05-07T11:48:47;2.55;;;1.30;;
11006;SDS011;8186;57.652;11.968;2023-05-07T11:51:19;3.83;;;1.55;;
11006;SDS011;8186;57.652;11.968;2023-05-07T11:53:47;3.28;;;1.60;;
11006;SDS011;8186;57.652;11.968;2023-05-07T11:56:15;4.70;;;1.30;;
11006;SDS011;8186;57.652;11.968;2023-05-07T11:58:43;1.40;;;1.30;;
11006;SDS011;8186;57.652;11.968;2023-05-07T12:01:11;2.15;;;1.60;;
11006;SDS011;8186;57.652;11.968;2023-05-07T12:03:40;2.25;;;1.40;;
11006;SDS011;8186;57.652;11.968;2023-05-07T12:06:09;3.95;;;1.60;;
11006;SDS011;8186;57.652;11.968;2023-05-07T12:08:38;4.22;;;1.67;;
11006;SDS011;8186;57.652;11.968;2023-05-07T12:11:09;5.40;;;1.48;;
11006;SDS011;8186;57.652;11.968;2023-05-07T12:13:37;1.90;;;1.20;;
11006;SDS011;8186;57.652;11.968;2023-05-07T12:16:05;3.53;;;1.67;;
11006;SDS011;8186;57.652;11.968;2023-05-07T12:18:34;2.63;;;1.45;;
11006;SDS011;8186;57.652;11.968;2023-05-07T12:21:01;2.45;;;1.20;;
11006;SDS011;8186;57.652;11.968;2023-05-07T12:23:29;2.25;;;1.60;;
11006;SDS011;8186;57.652;11.968;2023-05-07T12:25:58;1.73;;;1.63;;
11006;SDS011;8186;57.652;11.968;2023-05-07T12:28:25;1.60;;;1.50;;
11006;SDS011;8186;57.652;11.968;2023-05-07T12:30:52;2.47;;;1.50;;
11006;SDS011;8186;57.652;11.968;2023-05-07T12:33:23;3.53;;;1.40;;
11006;SDS011;8186;57.652;11.968;2023-05-07T12:35:52;4.47;;;1.42;;
11006;SDS011;8186;57.652;11.968;2023-05-07T12:38:20;3.05;;;1.40;;
11006;SDS011;8186;57.652;11.968;2023-05-07T12:40:48;3.10;;;1.60;;
11006;SDS011;8186;57.652;11.968;2023-05-07T12:43:17;2.55;;;1.40;;
11006;SDS011;8186;57.652;11.968;2023-05-07T12:45:48;3.63;;;1.45;;
11006;SDS011;8186;57.652;11.968;2023-05-07T12:48:16;4.00;;;1.42;;
11006;SDS011;8186;57.652;11.968;2023-05-07T12:50:43;1.60;;;1.50;;
11006;SDS011;8186;57.652;11.968;2023-05-07T12:53:11;3.70;;;1.40;;
11006;SDS011;8186;57.652;11.968;2023-05-07T12:55:40;1.92;;;1.40;;
11006;SDS011;8186;57.652;11.968;2023-05-07T12:58:08;4.18;;;1.40;;
11006;SDS011;8186;57.652;11.968;2023-05-07T13:00:42;3.83;;;1.40;;
11006;SDS011;8186;57.652;11.968;2023-05-07T13:03:10;3.38;;;1.50;;
11006;SDS011;8186;57.652;11.968;2023-05-07T13:05:37;3.22;;;1.50;;
11006;SDS011;8186;57.652;11.968;2023-05-07T13:08:05;2.67;;;1.60;;
11006;SDS011;8186;57.652;11.968;2023-05-07T13:10:32;3.47;;;1.50;;
11006;SDS011;8186;57.652;11.968;2023-05-07T13:12:59;3.33;;;1.30;;
11006;SDS011;8186;57.652;11.968;2023-05-07T13:15:26;2.53;;;1.48;;
11006;SDS011;8186;57.652;11.968;2023-05-07T13:17:55;1.73;;;1.60;;
11006;SDS011;8186;57.652;11.968;2023-05-07T13:20:22;3.00;;;1.52;;
11006;SDS011;8186;57.652;11.968;2023-05-07T13:22:48;3.35;;;1.70;;
11006;SDS011;8186;57.652;11.968;2023-05-07T13:25:15;5.03;;;1.65;;
11006;SDS011;8186;57.652;11.968;2023-05-07T13:27:43;5.97;;;2.00;;
11006;SDS011;8186;57.652;11.968;2023-05-07T13:30:10;3.28;;;1.70;;
11006;SDS011;8186;57.652;11.968;2023-05-07T13:32:37;3.90;;;1.65;;
11006;SDS011;8186;57.652;11.968;2023-05-07T13:35:06;2.38;;;1.75;;
11006;SDS011;8186;57.652;11.968;2023-05-07T13:37:33;2.27;;;1.80;;
11006;SDS011;8186;57.652;11.968;2023-05-07T13:40:00;3.37;;;1.60;;
11006;SDS011;8186;57.652;11.968;2023-05-07T13:42:28;3.33;;;1.90;;
11006;SDS011;8186;57.652;11.968;2023-05-07T13:44:55;1.57;;;1.47;;
11006;SDS011;8186;57.652;11.968;2023-05-07T13:47:23;3.47;;;1.90;;
11006;SDS011;8186;57.652;11.968;2023-05-07T13:49:49;1.80;;;1.60;;
11006;SDS011;8186;57.652;11.968;2023-05-07T13:52:18;3.77;;;1.57;;
11006;SDS011;8186;57.652;11.968;2023-05-07T13:54:45;3.30;;;1.70;;
11006;SDS011;8186;57.652;11.968;2023-05-07T13:57:12;3.10;;;1.93;;
11006;SDS011;8186;57.652;11.968;2023-05-07T13:59:40;9.67;;;1.70;;
11006;SDS011;8186;57.652;11.968;2023-05-07T14:02:07;2.87;;;1.77;;
11006;SDS011;8186;57.652;11.968;2023-05-07T14:04:34;5.03;;;1.87;;
11006;SDS011;8186;57.652;11.968;2023-05-07T14:07:01;3.10;;;2.20;;
11006;SDS011;8186;57.652;11.968;2023-05-07T14:09:29;2.63;;;1.83;;
11006;SDS011;8186;57.652;11.968;2023-05-07T14:11:56;3.53;;;1.93;;
11006;SDS011;8186;57.652;11.968;2023-05-07T14:14:25;3.30;;;2.03;;
11006;SDS011;8186;57.652;11.968;2023-05-07T14:16:52;2.50;;;2.10;;
11006;SDS011;8186;57.652;11.968;2023-05-07T14:19:19;2.47;;;2.23;;
11006;SDS011;8186;57.652;11.968;2023-05-07T14:21:47;4.63;;;2.10;;
11006;SDS011;8186;57.652;11.968;2023-05-07T14:24:14;3.63;;;2.20;;
11006;SDS011;8186;57.652;11.968;2023-05-07T14:26:43;2.53;;;1.90;;
11006;SDS011;8186;57.652;11.968;2023-05-07T14:29:10;3.73;;;1.80;;
11006;SDS011;8186;57.652;11.968;2023-05-07T14:31:37;3.75;;;2.40;;
11006;SDS011;8186;57.652;11.968;2023-05-07T14:34:04;3.37;;;2.10;;
11006;SDS011;8186;57.652;11.968;2023-05-07T14:36:31;4.57;;;2.47;;
11006;SDS011;8186;57.652;11.968;2023-05-07T14:38:58;8.60;;;2.77;;
11006;SDS011;8186;57.652;11.968;2023-05-07T14:41:26;3.87;;;2.20;;
11006;SDS011;8186;57.652;11.968;2023-05-07T14:43:54;3.17;;;2.10;;
11006;SDS011;8186;57.652;11.968;2023-05-07T14:46:22;3.23;;;1.87;;
11006;SDS011;8186;57.652;11.968;2023-05-07T14:48:49;2.67;;;2.00;;
11006;SDS011;8186;57.652;11.968;2023-05-07T14:51:16;5.50;;;1.87;;
11006;SDS011;8186;57.652;11.968;2023-05-07T14:53:44;2.67;;;2.00;;
11006;SDS011;8186;57.652;11.968;2023-05-07T14:56:11;4.40;;;1.80;;
11006;SDS011;8186;57.652;11.968;2023-05-07T14:58:37;2.60;;;2.00;;
11006;SDS011;8186;57.652;11.968;2023-05-07T15:01:06;5.87;;;2.43;;
11006;SDS011;8186;57.652;11.968;2023-05-07T15:03:33;2.80;;;2.53;;